sensor_id;sensor_type;location;lat;lon;timestamp;pressure;altitude;pressure_sealevel;temperature;humidity
31911;BME280;18457;52.432;16.914;2023-03-23T00:01:37;99721.14;;;12.91;71.02
31911;BME280;18457;52.432;16.914;2023-03-23T00:04:09;99719.83;;;12.92;71.30
31911;BME280;18457;52.432;16.914;2023-03-23T00:06:42;99718.41;;;12.95;71.18
31911;BME280;18457;52.432;16.914;2023-03-23T00:09:13;99716.90;;;12.96;71.30
31911;BME280;18457;52.432;16.914;2023-03-23T00:11:44;99716.55;;;12.92;71.30
31911;BME280;18457;52.432;16.914;2023-03-23T00:14:15;99718.10;;;12.78;71.95
31911;BME280;18457;52.432;16.914;2023-03-23T00:16:45;99718.33;;;12.77;71.89
31911;BME280;18457;52.432;16.914;2023-03-23T00:19:17;99710.91;;;12.73;72.02
31911;BME280;18457;52.432;16.914;2023-03-23T00:21:49;99711.96;;;12.73;72.01
31911;BME280;18457;52.432;16.914;2023-03-23T00:24:23;99710.15;;;12.73;72.04
31911;BME280;18457;52.432;16.914;2023-03-23T00:26:53;99705.22;;;12.66;72.33
31911;BME280;18457;52.432;16.914;2023-03-23T00:29:28;99707.91;;;12.67;72.17
31911;BME280;18457;52.432;16.914;2023-03-23T00:31:59;99703.66;;;12.68;72.06
31911;BME280;18457;52.432;16.914;2023-03-23T00:34:35;99705.98;;;12.69;72.00
31911;BME280;18457;52.432;16.914;2023-03-23T00:37:08;99707.40;;;12.66;72.06
31911;BME280;18457;52.432;16.914;2023-03-23T00:39:40;99700.20;;;12.65;72.07
31911;BME280;18457;52.432;16.914;2023-03-23T00:42:15;99700.90;;;12.65;72.16
31911;BME280;18457;52.432;16.914;2023-03-23T00:44:45;99702.86;;;12.66;71.88
31911;BME280;18457;52.432;16.914;2023-03-23T00:47:16;99700.14;;;12.62;72.04
31911;BME280;18457;52.432;16.914;2023-03-23T00:49:47;99694.91;;;12.53;72.36
31911;BME280;18457;52.432;16.914;2023-03-23T00:52:19;99689.73;;;12.55;72.42
31911;BME280;18457;52.432;16.914;2023-03-23T00:54:50;99688.67;;;12.59;72.32
31911;BME280;18457;52.432;16.914;2023-03-23T00:57:21;99682.63;;;12.57;72.33
31911;BME280;18457;52.432;16.914;2023-03-23T00:59:52;99677.56;;;12.56;72.25
31911;BME280;18457;52.432;16.914;2023-03-23T01:02:23;99669.91;;;12.62;72.26
31911;BME280;18457;52.432;16.914;2023-03-23T01:04:55;99666.77;;;12.63;72.08
31911;BME280;18457;52.432;16.914;2023-03-23T01:07:27;99661.44;;;12.64;71.94
31911;BME280;18457;52.432;16.914;2023-03-23T01:10:00;99661.31;;;12.63;72.09
31911;BME280;18457;52.432;16.914;2023-03-23T01:15:03;99662.56;;;12.60;72.42
31911;BME280;18457;52.432;16.914;2023-03-23T01:17:34;99662.62;;;12.58;72.25
31911;BME280;18457;52.432;16.914;2023-03-23T01:20:07;99664.91;;;12.56;72.33
31911;BME280;18457;52.432;16.914;2023-03-23T01:22:38;99666.88;;;12.57;72.18
31911;BME280;18457;52.432;16.914;2023-03-23T01:25:11;99663.84;;;12.55;72.37
31911;BME280;18457;52.432;16.914;2023-03-23T01:27:43;99664.27;;;12.53;72.30
31911;BME280;18457;52.432;16.914;2023-03-23T01:30:16;99662.05;;;12.55;72.30
31911;BME280;18457;52.432;16.914;2023-03-23T01:32:47;99656.07;;;12.55;72.19
31911;BME280;18457;52.432;16.914;2023-03-23T01:35:18;99648.60;;;12.55;72.18
31911;BME280;18457;52.432;16.914;2023-03-23T01:37:49;99646.13;;;12.55;72.36
31911;BME280;18457;52.432;16.914;2023-03-23T01:40:21;99643.02;;;12.55;72.48
31911;BME280;18457;52.432;16.914;2023-03-23T01:42:52;99640.71;;;12.54;72.38
31911;BME280;18457;52.432;16.914;2023-03-23T01:45:29;99632.58;;;12.49;72.87
31911;BME280;18457;52.432;16.914;2023-03-23T01:48:06;99637.50;;;12.49;73.60
31911;BME280;18457;52.432;16.914;2023-03-23T01:50:42;99637.21;;;12.47;73.38
31911;BME280;18457;52.432;16.914;2023-03-23T01:53:15;99630.13;;;12.43;73.58
31911;BME280;18457;52.432;16.914;2023-03-23T01:55:46;99627.27;;;12.34;74.75
31911;BME280;18457;52.432;16.914;2023-03-23T01:58:21;99628.01;;;12.26;74.85
31911;BME280;18457;52.432;16.914;2023-03-23T02:00:58;99623.56;;;12.16;75.38
31911;BME280;18457;52.432;16.914;2023-03-23T02:03:32;99618.76;;;12.13;75.85
31911;BME280;18457;52.432;16.914;2023-03-23T02:06:04;99609.88;;;12.14;75.80
31911;BME280;18457;52.432;16.914;2023-03-23T02:08:44;99605.96;;;12.12;75.33
31911;BME280;18457;52.432;16.914;2023-03-23T02:11:17;99600.59;;;12.11;75.31
31911;BME280;18457;52.432;16.914;2023-03-23T02:13:49;99599.83;;;12.12;74.88
31911;BME280;18457;52.432;16.914;2023-03-23T02:16:27;99603.87;;;12.15;74.75
31911;BME280;18457;52.432;16.914;2023-03-23T02:19:18;99598.09;;;12.18;74.42
31911;BME280;18457;52.432;16.914;2023-03-23T02:22:19;99590.98;;;12.19;74.00
31911;BME280;18457;52.432;16.914;2023-03-23T02:25:14;99588.65;;;12.19;74.13
31911;BME280;18457;52.432;16.914;2023-03-23T02:28:08;99578.70;;;12.15;74.22
31911;BME280;18457;52.432;16.914;2023-03-23T02:30:52;99573.32;;;12.13;74.66
31911;BME280;18457;52.432;16.914;2023-03-23T02:33:39;99571.50;;;12.14;74.61
31911;BME280;18457;52.432;16.914;2023-03-23T02:36:19;99571.31;;;12.10;75.05
31911;BME280;18457;52.432;16.914;2023-03-23T02:38:59;99572.05;;;12.10;75.04
31911;BME280;18457;52.432;16.914;2023-03-23T02:41:36;99569.77;;;12.08;75.10
31911;BME280;18457;52.432;16.914;2023-03-23T02:44:09;99567.56;;;12.08;75.03
31911;BME280;18457;52.432;16.914;2023-03-23T02:46:41;99561.59;;;12.09;74.86
31911;BME280;18457;52.432;16.914;2023-03-23T02:49:15;99560.00;;;12.08;74.85
31911;BME280;18457;52.432;16.914;2023-03-23T02:51:48;99560.05;;;12.07;74.99
31911;BME280;18457;52.432;16.914;2023-03-23T02:54:21;99562.92;;;12.07;74.95
31911;BME280;18457;52.432;16.914;2023-03-23T02:56:55;99563.84;;;12.07;74.90
31911;BME280;18457;52.432;16.914;2023-03-23T02:59:30;99572.36;;;12.07;75.02
31911;BME280;18457;52.432;16.914;2023-03-23T03:02:06;99572.58;;;12.06;74.95
31911;BME280;18457;52.432;16.914;2023-03-23T03:04:40;99573.52;;;12.05;74.94
31911;BME280;18457;52.432;16.914;2023-03-23T03:07:32;99567.58;;;12.04;75.02
31911;BME280;18457;52.432;16.914;2023-03-23T03:10:10;99566.67;;;12.04;74.98
31911;BME280;18457;52.432;16.914;2023-03-23T03:12:53;99565.79;;;12.04;74.91
31911;BME280;18457;52.432;16.914;2023-03-23T03:15:32;99561.75;;;12.05;74.82
31911;BME280;18457;52.432;16.914;2023-03-23T03:18:09;99560.65;;;12.05;74.75
31911;BME280;18457;52.432;16.914;2023-03-23T03:20:45;99559.17;;;12.06;74.70
31911;BME280;18457;52.432;16.914;2023-03-23T03:23:19;99557.73;;;12.06;74.69
31911;BME280;18457;52.432;16.914;2023-03-23T03:25:51;99554.60;;;12.07;74.48
31911;BME280;18457;52.432;16.914;2023-03-23T03:28:29;99550.06;;;12.07;74.38
31911;BME280;18457;52.432;16.914;2023-03-23T03:31:03;99554.33;;;12.09;74.26
31911;BME280;18457;52.432;16.914;2023-03-23T03:33:35;99548.91;;;12.09;74.18
31911;BME280;18457;52.432;16.914;2023-03-23T03:36:07;99544.96;;;12.08;74.17
31911;BME280;18457;52.432;16.914;2023-03-23T03:38:47;99546.40;;;12.08;73.96
31911;BME280;18457;52.432;16.914;2023-03-23T03:41:20;99544.95;;;12.08;73.91
31911;BME280;18457;52.432;16.914;2023-03-23T03:43:51;99546.70;;;12.09;73.94
31911;BME280;18457;52.432;16.914;2023-03-23T03:46:22;99542.39;;;12.09;73.95
31911;BME280;18457;52.432;16.914;2023-03-23T03:48:57;99542.41;;;12.08;73.96
31911;BME280;18457;52.432;16.914;2023-03-23T03:51:30;99546.20;;;12.09;73.87
31911;BME280;18457;52.432;16.914;2023-03-23T03:54:01;99544.77;;;12.08;73.83
31911;BME280;18457;52.432;16.914;2023-03-23T03:56:32;99544.73;;;12.09;73.67
31911;BME280;18457;52.432;16.914;2023-03-23T03:59:16;99537.23;;;12.10;73.58
31911;BME280;18457;52.432;16.914;2023-03-23T04:02:07;99532.42;;;12.09;73.50
31911;BME280;18457;52.432;16.914;2023-03-23T04:04:39;99533.70;;;12.08;73.38
31911;BME280;18457;52.432;16.914;2023-03-23T04:07:11;99541.81;;;12.13;73.10
31911;BME280;18457;52.432;16.914;2023-03-23T04:09:43;99543.21;;;12.14;72.97
31911;BME280;18457;52.432;16.914;2023-03-23T04:12:17;99548.11;;;12.14;73.00
31911;BME280;18457;52.432;16.914;2023-03-23T04:14:58;99544.79;;;12.16;72.64
31911;BME280;18457;52.432;16.914;2023-03-23T04:17:33;99549.60;;;12.17;72.43
31911;BME280;18457;52.432;16.914;2023-03-23T04:20:07;99547.73;;;12.19;72.10
31911;BME280;18457;52.432;16.914;2023-03-23T04:22:45;99544.22;;;12.21;71.82
31911;BME280;18457;52.432;16.914;2023-03-23T04:25:19;99544.09;;;12.23;71.70
31911;BME280;18457;52.432;16.914;2023-03-23T04:27:52;99537.48;;;12.25;71.39
31911;BME280;18457;52.432;16.914;2023-03-23T04:30:30;99540.46;;;12.27;71.28
31911;BME280;18457;52.432;16.914;2023-03-23T04:33:11;99537.88;;;12.29;71.06
31911;BME280;18457;52.432;16.914;2023-03-23T04:35:44;99533.98;;;12.27;71.22
31911;BME280;18457;52.432;16.914;2023-03-23T04:38:23;99525.81;;;12.27;71.00
31911;BME280;18457;52.432;16.914;2023-03-23T04:41:00;99522.62;;;12.34;70.85
31911;BME280;18457;52.432;16.914;2023-03-23T04:43:46;99520.64;;;12.33;70.46
31911;BME280;18457;52.432;16.914;2023-03-23T04:46:33;99514.52;;;12.33;70.22
31911;BME280;18457;52.432;16.914;2023-03-23T04:49:09;99511.17;;;12.38;70.02
31911;BME280;18457;52.432;16.914;2023-03-23T04:51:42;99510.90;;;12.41;69.66
31911;BME280;18457;52.432;16.914;2023-03-23T04:54:19;99511.02;;;12.42;69.46
31911;BME280;18457;52.432;16.914;2023-03-23T04:56:53;99507.34;;;12.43;69.19
31911;BME280;18457;52.432;16.914;2023-03-23T04:59:24;99506.47;;;12.46;68.94
31911;BME280;18457;52.432;16.914;2023-03-23T05:02:14;99509.33;;;12.51;68.81
31911;BME280;18457;52.432;16.914;2023-03-23T05:04:48;99510.56;;;12.55;68.66
31911;BME280;18457;52.432;16.914;2023-03-23T05:07:27;99510.28;;;12.58;68.47
31911;BME280;18457;52.432;16.914;2023-03-23T05:09:59;99505.48;;;12.60;68.30
31911;BME280;18457;52.432;16.914;2023-03-23T05:12:32;99501.84;;;12.60;68.21
31911;BME280;18457;52.432;16.914;2023-03-23T05:15:09;99503.47;;;12.60;68.27
31911;BME280;18457;52.432;16.914;2023-03-23T05:17:41;99500.66;;;12.62;68.01
31911;BME280;18457;52.432;16.914;2023-03-23T05:20:17;99495.14;;;12.67;67.99
31911;BME280;18457;52.432;16.914;2023-03-23T05:22:53;99499.27;;;12.64;68.01
31911;BME280;18457;52.432;16.914;2023-03-23T05:25:31;99495.73;;;12.70;68.10
31911;BME280;18457;52.432;16.914;2023-03-23T05:28:09;99487.98;;;12.73;67.89
31911;BME280;18457;52.432;16.914;2023-03-23T05:31:00;99484.09;;;12.78;67.87
31911;BME280;18457;52.432;16.914;2023-03-23T05:33:34;99484.19;;;12.80;67.41
31911;BME280;18457;52.432;16.914;2023-03-23T05:36:38;99480.95;;;12.83;67.48
31911;BME280;18457;52.432;16.914;2023-03-23T05:39:27;99481.40;;;12.89;67.44
31911;BME280;18457;52.432;16.914;2023-03-23T05:42:35;99481.08;;;12.92;67.05
31911;BME280;18457;52.432;16.914;2023-03-23T05:45:14;99480.08;;;12.94;66.90
31911;BME280;18457;52.432;16.914;2023-03-23T05:47:48;99481.40;;;12.96;66.89
31911;BME280;18457;52.432;16.914;2023-03-23T05:50:22;99485.35;;;12.94;66.80
31911;BME280;18457;52.432;16.914;2023-03-23T05:52:53;99488.77;;;12.98;66.75
31911;BME280;18457;52.432;16.914;2023-03-23T05:55:25;99498.59;;;13.01;66.41
31911;BME280;18457;52.432;16.914;2023-03-23T05:58:04;99498.82;;;13.00;66.44
31911;BME280;18457;52.432;16.914;2023-03-23T06:00:37;99504.29;;;13.03;66.23
31911;BME280;18457;52.432;16.914;2023-03-23T06:03:15;99498.31;;;13.07;66.01
31911;BME280;18457;52.432;16.914;2023-03-23T06:05:54;99495.97;;;13.10;65.82
31911;BME280;18457;52.432;16.914;2023-03-23T06:08:28;99495.42;;;13.14;66.00
31911;BME280;18457;52.432;16.914;2023-03-23T06:11:00;99485.72;;;13.20;65.36
31911;BME280;18457;52.432;16.914;2023-03-23T06:13:32;99487.16;;;13.24;65.46
31911;BME280;18457;52.432;16.914;2023-03-23T06:16:11;99481.95;;;13.27;65.34
31911;BME280;18457;52.432;16.914;2023-03-23T06:18:51;99479.98;;;13.29;65.15
31911;BME280;18457;52.432;16.914;2023-03-23T06:21:35;99466.52;;;13.34;65.09
31911;BME280;18457;52.432;16.914;2023-03-23T06:24:42;99461.02;;;13.39;64.88
31911;BME280;18457;52.432;16.914;2023-03-23T06:27:14;99467.18;;;13.39;64.56
31911;BME280;18457;52.432;16.914;2023-03-23T06:29:46;99460.29;;;13.42;64.31
31911;BME280;18457;52.432;16.914;2023-03-23T06:32:20;99456.58;;;13.44;64.08
31911;BME280;18457;52.432;16.914;2023-03-23T06:34:53;99457.77;;;13.49;64.07
31911;BME280;18457;52.432;16.914;2023-03-23T06:37:55;99458.44;;;13.50;63.66
31911;BME280;18457;52.432;16.914;2023-03-23T06:40:38;99470.00;;;13.55;63.49
31911;BME280;18457;52.432;16.914;2023-03-23T06:43:10;99474.03;;;13.57;63.41
31911;BME280;18457;52.432;16.914;2023-03-23T06:45:49;99471.20;;;13.63;63.02
31911;BME280;18457;52.432;16.914;2023-03-23T06:48:40;99477.04;;;13.69;62.87
31911;BME280;18457;52.432;16.914;2023-03-23T06:51:13;99480.63;;;13.73;62.76
31911;BME280;18457;52.432;16.914;2023-03-23T06:53:46;99476.73;;;13.78;62.76
31911;BME280;18457;52.432;16.914;2023-03-23T06:56:17;99469.64;;;13.85;62.17
31911;BME280;18457;52.432;16.914;2023-03-23T06:58:49;99469.95;;;13.93;61.84
31911;BME280;18457;52.432;16.914;2023-03-23T07:01:21;99467.39;;;14.00;61.57
31911;BME280;18457;52.432;16.914;2023-03-23T07:03:58;99463.98;;;14.10;61.49
31911;BME280;18457;52.432;16.914;2023-03-23T07:06:53;99470.32;;;14.17;61.03
31911;BME280;18457;52.432;16.914;2023-03-23T07:09:26;99467.81;;;14.23;60.79
31911;BME280;18457;52.432;16.914;2023-03-23T07:11:57;99468.02;;;14.26;60.71
31911;BME280;18457;52.432;16.914;2023-03-23T07:14:35;99465.27;;;14.30;60.69
31911;BME280;18457;52.432;16.914;2023-03-23T07:17:06;99468.06;;;14.32;60.69
31911;BME280;18457;52.432;16.914;2023-03-23T07:19:41;99468.65;;;14.35;60.84
31911;BME280;18457;52.432;16.914;2023-03-23T07:22:14;99477.52;;;14.39;60.71
31911;BME280;18457;52.432;16.914;2023-03-23T07:24:47;99473.65;;;14.43;60.81
31911;BME280;18457;52.432;16.914;2023-03-23T07:27:27;99473.52;;;14.48;60.80
31911;BME280;18457;52.432;16.914;2023-03-23T07:30:00;99474.14;;;14.57;60.56
31911;BME280;18457;52.432;16.914;2023-03-23T07:32:31;99476.12;;;14.60;60.55
31911;BME280;18457;52.432;16.914;2023-03-23T07:35:01;99481.65;;;14.62;60.60
31911;BME280;18457;52.432;16.914;2023-03-23T07:37:48;99489.61;;;14.63;60.48
31911;BME280;18457;52.432;16.914;2023-03-23T07:40:20;99485.45;;;14.63;60.78
31911;BME280;18457;52.432;16.914;2023-03-23T07:42:56;99477.70;;;14.65;61.13
31911;BME280;18457;52.432;16.914;2023-03-23T07:45:37;99486.42;;;14.68;61.04
31911;BME280;18457;52.432;16.914;2023-03-23T07:48:09;99484.41;;;14.65;61.06
31911;BME280;18457;52.432;16.914;2023-03-23T07:50:40;99479.51;;;14.65;61.26
31911;BME280;18457;52.432;16.914;2023-03-23T07:53:12;99480.46;;;14.67;61.39
31911;BME280;18457;52.432;16.914;2023-03-23T07:55:44;99482.59;;;14.68;61.57
31911;BME280;18457;52.432;16.914;2023-03-23T07:58:34;99479.98;;;14.69;61.53
31911;BME280;18457;52.432;16.914;2023-03-23T08:01:11;99488.67;;;14.70;61.58
31911;BME280;18457;52.432;16.914;2023-03-23T08:03:44;99487.50;;;14.71;61.66
31911;BME280;18457;52.432;16.914;2023-03-23T08:06:21;99496.38;;;14.72;61.52
31911;BME280;18457;52.432;16.914;2023-03-23T08:09:09;99491.41;;;14.76;61.58
31911;BME280;18457;52.432;16.914;2023-03-23T08:12:04;99498.65;;;14.83;61.75
31911;BME280;18457;52.432;16.914;2023-03-23T08:14:59;99492.48;;;14.86;61.49
31911;BME280;18457;52.432;16.914;2023-03-23T08:17:47;99482.38;;;14.88;61.42
31911;BME280;18457;52.432;16.914;2023-03-23T08:20:38;99480.61;;;14.91;61.39
31911;BME280;18457;52.432;16.914;2023-03-23T08:23:17;99488.45;;;14.94;61.50
31911;BME280;18457;52.432;16.914;2023-03-23T08:26:05;99487.11;;;14.95;61.77
31911;BME280;18457;52.432;16.914;2023-03-23T08:28:56;99489.64;;;14.98;61.32
31911;BME280;18457;52.432;16.914;2023-03-23T08:31:40;99484.90;;;15.02;61.37
31911;BME280;18457;52.432;16.914;2023-03-23T08:34:30;99479.98;;;15.02;61.14
31911;BME280;18457;52.432;16.914;2023-03-23T08:37:13;99477.20;;;15.06;60.88
31911;BME280;18457;52.432;16.914;2023-03-23T08:40:13;99477.37;;;15.12;60.91
31911;BME280;18457;52.432;16.914;2023-03-23T08:42:52;99482.20;;;15.17;60.44
31911;BME280;18457;52.432;16.914;2023-03-23T08:45:30;99483.20;;;15.21;60.37
31911;BME280;18457;52.432;16.914;2023-03-23T08:48:20;99485.24;;;15.18;60.21
31911;BME280;18457;52.432;16.914;2023-03-23T08:51:19;99486.74;;;15.20;60.17
31911;BME280;18457;52.432;16.914;2023-03-23T08:54:14;99486.76;;;15.23;60.29
31911;BME280;18457;52.432;16.914;2023-03-23T08:57:05;99487.23;;;15.24;60.17
31911;BME280;18457;52.432;16.914;2023-03-23T08:59:51;99484.77;;;15.29;60.17
31911;BME280;18457;52.432;16.914;2023-03-23T09:02:45;99481.55;;;15.34;60.12
31911;BME280;18457;52.432;16.914;2023-03-23T09:05:25;99481.96;;;15.39;59.86
31911;BME280;18457;52.432;16.914;2023-03-23T09:08:19;99488.49;;;15.46;59.46
31911;BME280;18457;52.432;16.914;2023-03-23T09:10:50;99493.39;;;15.47;59.32
31911;BME280;18457;52.432;16.914;2023-03-23T09:13:21;99483.71;;;15.47;59.48
31911;BME280;18457;52.432;16.914;2023-03-23T09:15:52;99491.66;;;15.48;59.41
31911;BME280;18457;52.432;16.914;2023-03-23T09:18:23;99497.27;;;15.52;59.38
31911;BME280;18457;52.432;16.914;2023-03-23T09:20:55;99500.08;;;15.63;59.11
31911;BME280;18457;52.432;16.914;2023-03-23T09:23:27;99502.10;;;15.77;58.91
31911;BME280;18457;52.432;16.914;2023-03-23T09:25:58;99496.55;;;15.97;58.68
31911;BME280;18457;52.432;16.914;2023-03-23T09:28:30;99500.16;;;16.09;58.35
31911;BME280;18457;52.432;16.914;2023-03-23T09:31:01;99501.39;;;16.25;63.74
31911;BME280;18457;52.432;16.914;2023-03-23T09:33:33;99499.39;;;16.39;63.58
31911;BME280;18457;52.432;16.914;2023-03-23T09:36:06;99498.23;;;16.46;60.70
31911;BME280;18457;52.432;16.914;2023-03-23T09:38:42;99504.41;;;16.41;59.97
31911;BME280;18457;52.432;16.914;2023-03-23T09:41:28;99503.47;;;16.41;60.07
31911;BME280;18457;52.432;16.914;2023-03-23T09:44:09;99504.38;;;16.35;58.12
31911;BME280;18457;52.432;16.914;2023-03-23T09:46:53;99504.34;;;16.30;56.85
31911;BME280;18457;52.432;16.914;2023-03-23T09:49:30;99515.10;;;16.21;56.62
31911;BME280;18457;52.432;16.914;2023-03-23T09:52:07;99523.39;;;16.11;56.57
31911;BME280;18457;52.432;16.914;2023-03-23T09:54:41;99521.52;;;16.09;56.72
31911;BME280;18457;52.432;16.914;2023-03-23T09:57:18;99524.45;;;15.99;57.26
31911;BME280;18457;52.432;16.914;2023-03-23T09:59:54;99533.56;;;15.88;57.62
31911;BME280;18457;52.432;16.914;2023-03-23T10:02:32;99534.21;;;15.80;58.57
31911;BME280;18457;52.432;16.914;2023-03-23T10:05:29;99541.07;;;15.75;59.20
31911;BME280;18457;52.432;16.914;2023-03-23T10:08:02;99553.22;;;15.63;59.60
31911;BME280;18457;52.432;16.914;2023-03-23T10:10:45;99551.00;;;15.57;60.12
31911;BME280;18457;52.432;16.914;2023-03-23T10:13:22;99558.11;;;15.54;60.55
31911;BME280;18457;52.432;16.914;2023-03-23T10:15:55;99562.71;;;15.47;60.49
31911;BME280;18457;52.432;16.914;2023-03-23T10:18:36;99579.52;;;15.33;61.39
31911;BME280;18457;52.432;16.914;2023-03-23T10:21:11;99572.36;;;15.25;62.25
31911;BME280;18457;52.432;16.914;2023-03-23T10:23:50;99581.95;;;15.16;63.44
31911;BME280;18457;52.432;16.914;2023-03-23T10:26:35;99577.05;;;15.09;64.67
31911;BME280;18457;52.432;16.914;2023-03-23T10:29:16;99581.09;;;14.95;65.49
31911;BME280;18457;52.432;16.914;2023-03-23T10:31:52;99581.67;;;14.82;66.61
31911;BME280;18457;52.432;16.914;2023-03-23T10:34:31;99578.94;;;14.72;67.40
31911;BME280;18457;52.432;16.914;2023-03-23T10:37:08;99589.15;;;14.61;68.63
31911;BME280;18457;52.432;16.914;2023-03-23T10:39:48;99587.46;;;14.55;69.60
31911;BME280;18457;52.432;16.914;2023-03-23T10:42:28;99593.74;;;14.47;70.25
31911;BME280;18457;52.432;16.914;2023-03-23T10:45:09;99594.95;;;14.41;71.04
31911;BME280;18457;52.432;16.914;2023-03-23T10:47:45;99590.42;;;14.41;71.38
31911;BME280;18457;52.432;16.914;2023-03-23T10:50:21;99588.28;;;14.40;71.35
31911;BME280;18457;52.432;16.914;2023-03-23T10:52:54;99591.51;;;14.38;70.83
31911;BME280;18457;52.432;16.914;2023-03-23T10:55:36;99586.84;;;14.43;70.89
31911;BME280;18457;52.432;16.914;2023-03-23T10:58:10;99587.70;;;14.48;71.09
31911;BME280;18457;52.432;16.914;2023-03-23T11:00:44;99585.89;;;14.58;70.99
31911;BME280;18457;52.432;16.914;2023-03-23T11:03:34;99585.33;;;14.65;70.61
31911;BME280;18457;52.432;16.914;2023-03-23T11:06:07;99582.38;;;14.69;70.61
31911;BME280;18457;52.432;16.914;2023-03-23T11:08:51;99575.39;;;14.67;69.97
31911;BME280;18457;52.432;16.914;2023-03-23T11:11:27;99579.15;;;14.71;69.23
31911;BME280;18457;52.432;16.914;2023-03-23T11:14:00;99576.77;;;14.75;68.59
31911;BME280;18457;52.432;16.914;2023-03-23T11:16:34;99576.60;;;14.78;68.11
31911;BME280;18457;52.432;16.914;2023-03-23T11:19:20;99580.61;;;14.85;67.67
31911;BME280;18457;52.432;16.914;2023-03-23T11:22:08;99583.06;;;14.86;67.43
31911;BME280;18457;52.432;16.914;2023-03-23T11:24:42;99578.52;;;14.96;67.58
31911;BME280;18457;52.432;16.914;2023-03-23T11:27:16;99576.97;;;14.98;67.14
31911;BME280;18457;52.432;16.914;2023-03-23T11:29:51;99572.88;;;14.96;67.21
31911;BME280;18457;52.432;16.914;2023-03-23T11:32:27;99561.54;;;15.01;67.21
31911;BME280;18457;52.432;16.914;2023-03-23T11:35:01;99557.02;;;15.13;67.37
31911;BME280;18457;52.432;16.914;2023-03-23T11:37:39;99563.19;;;15.16;66.54
31911;BME280;18457;52.432;16.914;2023-03-23T11:40:19;99557.27;;;15.05;65.82
31911;BME280;18457;52.432;16.914;2023-03-23T11:42:58;99559.48;;;15.05;66.09
31911;BME280;18457;52.432;16.914;2023-03-23T11:45:35;99553.95;;;15.12;66.06
31911;BME280;18457;52.432;16.914;2023-03-23T11:48:15;99554.07;;;15.20;66.10
31911;BME280;18457;52.432;16.914;2023-03-23T11:50:54;99556.05;;;15.20;65.74
31911;BME280;18457;52.432;16.914;2023-03-23T11:53:35;99547.48;;;15.17;66.23
31911;BME280;18457;52.432;16.914;2023-03-23T11:56:14;99557.09;;;15.15;66.19
31911;BME280;18457;52.432;16.914;2023-03-23T11:58:47;99563.09;;;15.15;66.42
31911;BME280;18457;52.432;16.914;2023-03-23T12:01:27;99555.78;;;15.19;66.60
31911;BME280;18457;52.432;16.914;2023-03-23T12:04:30;99558.70;;;15.21;66.74
31911;BME280;18457;52.432;16.914;2023-03-23T12:07:24;99555.04;;;15.19;67.08
31911;BME280;18457;52.432;16.914;2023-03-23T12:10:10;99550.95;;;15.23;67.08
31911;BME280;18457;52.432;16.914;2023-03-23T12:12:51;99549.67;;;15.36;67.02
31911;BME280;18457;52.432;16.914;2023-03-23T12:15:28;99550.85;;;15.45;66.76
31911;BME280;18457;52.432;16.914;2023-03-23T12:18:09;99552.14;;;15.51;66.95
31911;BME280;18457;52.432;16.914;2023-03-23T12:20:50;99549.98;;;15.50;67.05
31911;BME280;18457;52.432;16.914;2023-03-23T12:23:25;99559.77;;;15.44;67.35
31911;BME280;18457;52.432;16.914;2023-03-23T12:26:10;99557.42;;;15.34;67.38
31911;BME280;18457;52.432;16.914;2023-03-23T12:31:45;99547.05;;;15.28;68.21
31911;BME280;18457;52.432;16.914;2023-03-23T12:34:27;99551.21;;;15.34;68.25
31911;BME280;18457;52.432;16.914;2023-03-23T12:37:15;99548.67;;;15.35;68.12
31911;BME280;18457;52.432;16.914;2023-03-23T12:39:57;99545.77;;;15.34;68.16
31911;BME280;18457;52.432;16.914;2023-03-23T12:42:43;99543.11;;;15.37;68.35
31911;BME280;18457;52.432;16.914;2023-03-23T12:45:24;99551.02;;;15.35;68.40
31911;BME280;18457;52.432;16.914;2023-03-23T12:47:59;99545.65;;;15.30;67.94
31911;BME280;18457;52.432;16.914;2023-03-23T12:50:35;99548.58;;;15.27;68.35
31911;BME280;18457;52.432;16.914;2023-03-23T12:53:13;99547.38;;;15.29;68.40
31911;BME280;18457;52.432;16.914;2023-03-23T12:55:49;99553.77;;;15.28;67.80
31911;BME280;18457;52.432;16.914;2023-03-23T12:58:23;99552.16;;;15.31;67.64
31911;BME280;18457;52.432;16.914;2023-03-23T13:00:58;99553.72;;;15.39;67.70
31911;BME280;18457;52.432;16.914;2023-03-23T13:03:37;99548.61;;;15.45;67.38
31911;BME280;18457;52.432;16.914;2023-03-23T13:06:15;99553.59;;;15.51;67.29
31911;BME280;18457;52.432;16.914;2023-03-23T13:08:51;99555.59;;;15.47;67.11
31911;BME280;18457;52.432;16.914;2023-03-23T13:11:28;99554.20;;;15.50;67.06
31911;BME280;18457;52.432;16.914;2023-03-23T13:14:09;99552.98;;;15.49;67.14
31911;BME280;18457;52.432;16.914;2023-03-23T13:16:48;99558.14;;;15.51;67.10
31911;BME280;18457;52.432;16.914;2023-03-23T13:19:25;99552.71;;;15.56;67.21
31911;BME280;18457;52.432;16.914;2023-03-23T13:22:04;99557.52;;;15.61;67.03
31911;BME280;18457;52.432;16.914;2023-03-23T13:24:43;99553.50;;;15.64;66.77
31911;BME280;18457;52.432;16.914;2023-03-23T13:27:15;99552.32;;;15.66;66.84
31911;BME280;18457;52.432;16.914;2023-03-23T13:29:47;99548.50;;;15.72;66.62
31911;BME280;18457;52.432;16.914;2023-03-23T13:32:19;99548.23;;;15.77;66.39
31911;BME280;18457;52.432;16.914;2023-03-23T13:34:52;99535.18;;;15.82;66.24
31911;BME280;18457;52.432;16.914;2023-03-23T13:37:25;99537.02;;;15.84;66.15
31911;BME280;18457;52.432;16.914;2023-03-23T13:39:59;99537.76;;;15.81;66.10
31911;BME280;18457;52.432;16.914;2023-03-23T13:42:31;99539.13;;;15.77;66.05
31911;BME280;18457;52.432;16.914;2023-03-23T13:45:22;99537.11;;;15.74;66.09
31911;BME280;18457;52.432;16.914;2023-03-23T13:48:16;99523.02;;;15.69;66.54
31911;BME280;18457;52.432;16.914;2023-03-23T13:50:55;99538.71;;;15.65;66.62